Time;durP1;ratioP1;P1;durP2;ratioP2;P2;SDS_P1;SDS_P2;PMS_P1;PMS_P2;Temp;Humidity;BMP_temperature;BMP_pressure;BME280_temperature;BME280_humidity;BME280_pressure;Samples;Min_cycle;Max_cycle;Signal;HPM_P1;HPM_P2
2020/12/12 00:00:58;;;;;;;127.03;71.17;;;1.70;90.90;;;;;;4905973;28;87029;-76
2020/12/12 00:03:24;;;;;;;123.10;69.80;;;1.80;91.00;;;;;;4922550;28;87169;-76
2020/12/12 00:05:50;;;;;;;128.77;70.87;;;1.90;90.70;;;;;;4942710;28;88125;-76
2020/12/12 00:08:16;;;;;;;131.03;73.57;;;1.90;90.50;;;;;;4950322;28;89167;-75
2020/12/12 00:10:42;;;;;;;121.40;68.03;;;2.00;90.40;;;;;;4906492;28;87063;-75
2020/12/12 00:13:08;;;;;;;132.67;72.20;;;1.90;90.50;;;;;;4938157;28;87572;-76
2020/12/12 00:15:35;;;;;;;130.77;71.73;;;2.00;90.70;;;;;;4922500;28;88373;-76
2020/12/12 00:18:02;;;;;;;133.63;71.40;;;1.90;91.00;;;;;;4940358;28;91835;-76
2020/12/12 00:20:29;;;;;;;130.77;70.57;;;1.90;91.20;;;;;;4940907;28;88556;-76
2020/12/12 00:22:54;;;;;;;126.93;67.97;;;1.80;91.60;;;;;;4940819;28;87912;-76
2020/12/12 00:25:20;;;;;;;136.80;70.87;;;1.80;91.60;;;;;;4947964;28;91069;-76
2020/12/12 00:27:46;;;;;;;127.37;68.27;;;1.90;91.40;;;;;;4950720;28;91251;-76
2020/12/12 00:30:12;;;;;;;141.93;72.17;;;1.90;91.50;;;;;;4937538;28;87175;-76
2020/12/12 00:32:38;;;;;;;141.63;71.00;;;1.90;91.60;;;;;;4928743;28;87108;-76
2020/12/12 00:35:04;;;;;;;138.77;73.00;;;1.90;91.80;;;;;;4944171;28;91386;-75
2020/12/12 00:37:30;;;;;;;133.70;70.77;;;1.80;92.00;;;;;;4945609;28;91038;-76
2020/12/12 00:39:56;;;;;;;138.43;73.27;;;1.70;92.20;;;;;;4945058;28;87494;-75
2020/12/12 00:42:22;;;;;;;135.50;67.90;;;1.80;92.10;;;;;;4944648;28;88058;-75
2020/12/12 00:44:48;;;;;;;146.83;73.90;;;1.70;92.40;;;;;;4944080;28;92467;-76
2020/12/12 00:47:14;;;;;;;136.07;70.30;;;1.70;92.50;;;;;;4927263;28;91563;-76
2020/12/12 00:49:40;;;;;;;130.07;66.77;;;1.70;92.60;;;;;;4928470;28;87074;-76
2020/12/12 00:52:06;;;;;;;148.43;70.33;;;1.70;92.80;;;;;;4953136;28;87858;-76
2020/12/12 00:54:34;;;;;;;132.40;66.50;;;1.70;92.80;;;;;;4909145;28;91140;-76
2020/12/12 00:57:01;;;;;;;144.23;68.93;;;1.70;92.80;;;;;;4923464;28;88294;-76
2020/12/12 00:59:27;;;;;;;125.20;65.13;;;1.70;93.00;;;;;;4941305;28;87516;-76
2020/12/12 01:01:53;;;;;;;132.00;67.17;;;1.60;93.00;;;;;;4942843;28;86531;-76
2020/12/12 01:04:18;;;;;;;140.90;71.23;;;1.70;92.90;;;;;;4924570;28;91710;-76
2020/12/12 01:06:47;;;;;;;135.80;64.83;;;1.70;92.80;;;;;;4924542;28;91396;-76
2020/12/12 01:09:14;;;;;;;132.93;65.13;;;1.70;93.30;;;;;;4923805;28;87894;-76
2020/12/12 01:11:40;;;;;;;144.63;65.80;;;1.70;93.10;;;;;;4925324;28;87110;-75
2020/12/12 01:14:06;;;;;;;115.60;58.30;;;1.60;93.20;;;;;;4924080;28;91340;-76
2020/12/12 01:16:32;;;;;;;125.23;61.63;;;1.60;93.50;;;;;;4940900;28;91351;-76
2020/12/12 01:18:58;;;;;;;133.67;65.33;;;1.60;93.50;;;;;;4942335;28;87412;-76
2020/12/12 01:21:25;;;;;;;136.37;65.97;;;1.70;93.40;;;;;;4945403;28;87293;-76
2020/12/12 01:23:51;;;;;;;127.33;63.53;;;1.70;93.30;;;;;;4936368;28;91178;-76
2020/12/12 01:26:17;;;;;;;127.10;61.43;;;1.80;93.20;;;;;;4927525;28;89012;-76
2020/12/12 01:28:42;;;;;;;165.97;63.80;;;1.80;92.90;;;;;;4924973;28;87016;-76
2020/12/12 01:31:15;;;;;;;123.13;61.07;;;1.80;93.10;;;;;;4941483;28;87109;-76
2020/12/12 01:33:43;;;;;;;127.03;59.73;;;1.70;93.40;;;;;;4940162;28;92740;-76
2020/12/12 01:36:09;;;;;;;151.37;56.30;;;1.80;93.30;;;;;;4923149;28;92103;-76
2020/12/12 01:38:35;;;;;;;113.00;51.60;;;1.80;93.30;;;;;;4925134;28;87030;-76
2020/12/12 01:41:02;;;;;;;109.93;50.33;;;1.70;93.50;;;;;;4924253;28;87730;-76
2020/12/12 01:43:28;;;;;;;128.03;52.00;;;1.60;93.70;;;;;;4924251;28;91406;-76
2020/12/12 01:45:53;;;;;;;129.37;53.17;;;1.60;94.10;;;;;;4944119;28;87872;-76
2020/12/12 01:48:20;;;;;;;131.47;52.40;;;1.70;93.90;;;;;;4943764;28;87049;-76
2020/12/12 01:50:46;;;;;;;127.60;53.50;;;1.70;93.80;;;;;;4911100;28;88497;-76
2020/12/12 01:53:13;;;;;;;151.67;57.20;;;1.70;94.20;;;;;;4917534;28;91389;-76
2020/12/12 01:55:45;;;;;;;95.97;49.67;;;1.70;94.20;;;;;;4926035;28;87447;-76
2020/12/12 01:58:12;;;;;;;100.88;51.22;;;1.70;94.10;;;;;;4923694;28;88347;-76
2020/12/12 02:00:37;;;;;;;97.23;49.77;;;1.70;94.10;;;;;;4924073;28;87085;-76
2020/12/12 02:03:06;;;;;;;120.37;51.80;;;1.70;94.30;;;;;;4941100;28;87802;-76
2020/12/12 02:05:38;;;;;;;170.73;52.47;;;1.70;94.30;;;;;;4941554;28;87422;-76
2020/12/12 02:08:18;;;;;;;97.27;48.77;;;1.60;94.60;;;;;;4908465;28;87153;-76
2020/12/12 02:10:46;;;;;;;105.87;48.53;;;1.60;94.80;;;;;;4924238;28;88042;-76
2020/12/12 02:13:13;;;;;;;107.67;51.00;;;1.70;94.60;;;;;;4907058;28;91415;-76
2020/12/12 02:15:40;;;;;;;106.20;52.97;;;1.70;94.40;;;;;;4923841;28;91409;-76
2020/12/12 02:18:07;;;;;;;93.50;46.27;;;1.70;94.30;;;;;;4934690;28;87233;-76
2020/12/12 02:20:33;;;;;;;104.07;50.97;;;1.80;94.00;;;;;;4939393;28;87669;-76
2020/12/12 02:23:00;;;;;;;130.77;51.37;;;1.90;93.80;;;;;;4938718;28;91362;-75
2020/12/12 02:25:27;;;;;;;91.60;45.30;;;1.90;93.90;;;;;;4921557;28;92712;-76
2020/12/12 02:27:56;;;;;;;95.30;46.07;;;1.70;94.20;;;;;;4920501;28;87653;-75
2020/12/12 02:30:22;;;;;;;102.77;46.80;;;1.70;94.50;;;;;;4920412;28;87106;-76
2020/12/12 02:32:49;;;;;;;93.37;49.63;;;1.70;94.70;;;;;;4904522;28;91763;-75
2020/12/12 02:35:15;;;;;;;128.93;52.37;;;1.80;94.30;;;;;;4934681;28;90622;-76
2020/12/12 02:37:41;;;;;;;91.80;47.43;;;1.90;94.10;;;;;;4919770;28;87357;-76
2020/12/12 02:40:07;;;;;;;92.87;46.80;;;1.90;94.20;;;;;;4920272;28;86419;-76
2020/12/12 02:42:33;;;;;;;103.63;52.50;;;2.00;93.50;;;;;;4920947;28;87861;-76
2020/12/12 02:44:59;;;;;;;97.63;46.83;;;2.00;93.70;;;;;;4918774;28;90371;-76
2020/12/12 02:47:24;;;;;;;97.80;49.50;;;2.10;93.40;;;;;;4919528;28;87851;-78
2020/12/12 02:50:11;;;;;;;116.03;49.43;;;2.10;93.30;;;;;;4920299;28;87740;-77
2020/12/12 02:52:38;;;;;;;86.03;44.20;;;2.10;93.50;;;;;;4921683;28;87184;-78
2020/12/12 02:55:10;;;;;;;108.13;49.00;;;2.10;93.50;;;;;;4919202;28;90832;-79
2020/12/12 02:57:36;;;;;;;88.32;46.38;;;2.10;93.30;;;;;;4919686;28;86958;-78
2020/12/12 03:00:09;;;;;;;101.03;46.57;;;1.90;93.70;;;;;;4903415;28;88032;-77
2020/12/12 03:02:35;;;;;;;139.17;52.13;;;2.00;93.60;;;;;;4919918;28;91566;-78
2020/12/12 03:05:01;;;;;;;124.27;50.60;;;2.00;93.60;;;;;;4919669;28;91117;-78
2020/12/12 03:07:26;;;;;;;114.27;46.70;;;2.10;93.50;;;;;;4919966;28;87253;-78
2020/12/12 03:09:52;;;;;;;95.23;43.23;;;2.00;93.80;;;;;;4936146;28;87896;-78
2020/12/12 03:12:18;;;;;;;101.30;46.93;;;1.90;93.90;;;;;;4920395;28;88939;-78
2020/12/12 03:14:44;;;;;;;93.23;45.07;;;1.80;94.50;;;;;;4919725;28;90513;-78
2020/12/12 03:17:09;;;;;;;118.30;46.57;;;1.70;94.80;;;;;;4924026;28;86945;-79
2020/12/12 03:19:39;;;;;;;90.10;45.43;;;1.70;94.70;;;;;;4938933;28;87823;-78
2020/12/12 03:22:05;;;;;;;90.33;43.17;;;1.80;94.70;;;;;;4938205;28;90749;-78
2020/12/12 03:24:32;;;;;;;96.50;44.47;;;1.90;94.30;;;;;;4942600;28;88217;-77
2020/12/12 03:26:59;;;;;;;83.77;39.63;;;1.80;94.40;;;;;;4920079;28;87410;-77
2020/12/12 03:29:24;;;;;;;79.93;42.20;;;1.80;94.40;;;;;;4921368;28;86314;-78
2020/12/12 03:31:50;;;;;;;97.60;43.30;;;1.80;94.00;;;;;;4919542;28;91707;-79
2020/12/12 03:34:16;;;;;;;75.80;39.17;;;1.90;94.00;;;;;;4918719;28;91331;-78
2020/12/12 03:36:42;;;;;;;77.37;41.67;;;1.80;94.10;;;;;;4918716;28;87900;-78
2020/12/12 03:39:08;;;;;;;83.33;42.43;;;1.80;94.20;;;;;;4919074;28;86955;-78
2020/12/12 03:41:34;;;;;;;88.70;43.43;;;1.80;94.40;;;;;;4919687;28;88232;-78
2020/12/12 03:44:00;;;;;;;114.03;48.97;;;1.90;94.10;;;;;;4918830;28;90676;-78
2020/12/12 03:46:26;;;;;;;113.03;46.77;;;2.00;93.70;;;;;;4919441;28;87476;-78
2020/12/12 03:48:52;;;;;;;104.30;47.47;;;2.10;93.60;;;;;;4930296;28;87842;-78
2020/12/12 03:51:17;;;;;;;96.83;46.23;;;2.10;93.40;;;;;;4920743;28;90957;-78
2020/12/12 03:53:43;;;;;;;104.40;46.90;;;2.20;93.30;;;;;;4935592;28;91399;-78
2020/12/12 03:56:09;;;;;;;91.83;44.93;;;2.20;93.10;;;;;;4918145;28;87241;-78
2020/12/12 03:58:35;;;;;;;85.23;42.87;;;2.20;93.30;;;;;;4919503;28;87301;-78
2020/12/12 04:01:01;;;;;;;93.63;46.00;;;2.10;93.50;;;;;;4917749;28;91446;-77
2020/12/12 04:03:26;;;;;;;86.30;43.77;;;2.10;93.60;;;;;;4919044;28;89467;-78
2020/12/12 04:05:52;;;;;;;85.87;44.67;;;2.10;93.60;;;;;;4919081;28;87550;-78
2020/12/12 04:08:18;;;;;;;102.07;48.17;;;2.10;93.70;;;;;;4921296;28;87557;-78
2020/12/12 04:10:44;;;;;;;97.83;48.40;;;2.20;93.50;;;;;;4922979;28;88183;-78
2020/12/12 04:13:10;;;;;;;98.27;45.07;;;2.10;93.70;;;;;;4921865;28;91082;-78
2020/12/12 04:15:35;;;;;;;101.20;47.97;;;2.20;93.50;;;;;;4925194;28;87618;-78
2020/12/12 04:18:02;;;;;;;91.17;49.03;;;2.30;93.30;;;;;;4941931;28;86393;-78
2020/12/12 04:20:28;;;;;;;111.67;50.67;;;2.40;93.00;;;;;;4956692;28;88547;-78
2020/12/12 04:22:53;;;;;;;92.30;47.93;;;2.40;92.90;;;;;;4961210;28;90904;-78
2020/12/12 04:25:19;;;;;;;112.93;48.40;;;2.40;92.90;;;;;;4946451;28;87973;-78
2020/12/12 04:27:45;;;;;;;117.57;46.77;;;2.40;92.60;;;;;;4928559;28;88514;-78
2020/12/12 04:30:11;;;;;;;86.53;45.40;;;2.40;92.20;;;;;;4943184;28;88277;-78
2020/12/12 04:32:37;;;;;;;90.83;43.00;;;2.30;92.70;;;;;;4941695;28;90913;-78
2020/12/12 04:35:03;;;;;;;80.13;41.90;;;2.20;92.80;;;;;;4925090;28;86805;-77
2020/12/12 04:37:29;;;;;;;90.60;43.20;;;2.20;93.00;;;;;;4943170;28;87063;-79
2020/12/12 04:39:55;;;;;;;79.47;40.30;;;2.20;92.90;;;;;;4909356;28;91146;-78
2020/12/12 04:42:21;;;;;;;83.30;42.27;;;2.20;93.10;;;;;;4925102;28;91319;-78
2020/12/12 04:44:48;;;;;;;75.20;41.33;;;2.20;93.20;;;;;;4925741;28;87345;-78
2020/12/12 04:47:14;;;;;;;88.17;43.77;;;2.10;93.40;;;;;;4908255;28;87918;-78
2020/12/12 04:49:41;;;;;;;91.80;45.27;;;2.20;93.30;;;;;;4924545;28;91460;-78
2020/12/12 04:52:07;;;;;;;119.83;49.33;;;2.10;93.40;;;;;;4908340;28;92219;-77
2020/12/12 04:54:35;;;;;;;94.00;43.63;;;2.10;93.60;;;;;;4925265;28;87255;-78
2020/12/12 04:57:06;;;;;;;129.30;49.70;;;2.10;93.70;;;;;;4924591;28;87991;-77
2020/12/12 04:59:33;;;;;;;92.83;47.17;;;2.10;93.90;;;;;;4924677;28;90087;-77
2020/12/12 05:02:01;;;;;;;123.37;45.10;;;2.00;94.20;;;;;;4924953;28;90865;-78
2020/12/12 05:04:27;;;;;;;88.00;42.30;;;2.00;93.80;;;;;;4941163;28;87071;-78
2020/12/12 05:06:53;;;;;;;95.00;44.17;;;1.90;94.10;;;;;;4921173;28;87423;-78
2020/12/12 05:09:19;;;;;;;91.53;44.50;;;1.90;94.10;;;;;;4930566;28;87762;-78
2020/12/12 05:11:48;;;;;;;95.17;42.93;;;2.00;94.00;;;;;;4931402;28;90081;-78
2020/12/12 05:14:16;;;;;;;78.90;39.73;;;2.10;93.40;;;;;;4924240;28;88258;-78
2020/12/12 05:16:44;;;;;;;100.67;43.97;;;2.10;93.50;;;;;;4924513;28;87322;-78
2020/12/12 05:19:10;;;;;;;89.67;44.23;;;2.10;93.70;;;;;;4926265;28;90042;-78
2020/12/12 05:21:49;;;;;;;94.00;44.57;;;2.00;93.90;;;;;;4928046;28;91403;-78
2020/12/12 05:24:15;;;;;;;83.33;40.60;;;1.90;94.20;;;;;;4948466;28;87233;-77
2020/12/12 05:26:43;;;;;;;90.73;44.17;;;1.90;94.40;;;;;;4928586;28;87275;-78
2020/12/12 05:29:11;;;;;;;94.90;43.57;;;1.90;94.50;;;;;;4924160;28;88595;-78
2020/12/12 05:31:37;;;;;;;92.97;45.73;;;1.80;94.70;;;;;;4925209;28;87059;-78
2020/12/12 05:34:15;;;;;;;98.63;46.10;;;1.80;94.70;;;;;;4924378;28;86913;-78
2020/12/12 05:36:43;;;;;;;100.20;46.93;;;1.90;94.40;;;;;;4924165;28;87316;-78
2020/12/12 05:39:11;;;;;;;89.77;45.20;;;1.90;94.20;;;;;;4923207;28;92753;-78
2020/12/12 05:41:38;;;;;;;86.83;43.33;;;2.00;94.20;;;;;;4924456;28;92344;-78
2020/12/12 05:44:04;;;;;;;79.80;41.60;;;2.00;94.10;;;;;;4923930;28;87034;-78
2020/12/12 05:46:32;;;;;;;81.07;41.10;;;2.10;93.80;;;;;;4907942;28;88777;-78
2020/12/12 05:48:58;;;;;;;93.20;44.17;;;2.10;93.70;;;;;;4941055;28;87789;-78
2020/12/12 05:51:28;;;;;;;86.77;43.93;;;2.20;93.60;;;;;;4941100;28;88000;-78
2020/12/12 05:53:55;;;;;;;82.93;41.63;;;2.20;93.60;;;;;;4924435;28;87314;-78
2020/12/12 05:56:23;;;;;;;89.87;43.47;;;2.10;93.80;;;;;;4922947;28;88361;-78
2020/12/12 05:58:50;;;;;;;90.70;44.07;;;2.20;93.80;;;;;;4924416;28;88500;-78
2020/12/12 06:01:17;;;;;;;92.37;46.00;;;2.20;93.70;;;;;;4923399;28;91177;-78
2020/12/12 06:04:01;;;;;;;84.63;42.33;;;2.20;93.70;;;;;;4923801;28;88034;-78
2020/12/12 06:06:26;;;;;;;101.67;45.70;;;2.10;93.40;;;;;;4923294;28;88214;-78
2020/12/12 06:09:14;;;;;;;93.30;44.67;;;2.00;93.80;;;;;;4907978;28;91379;-78
2020/12/12 06:11:42;;;;;;;93.87;44.40;;;1.90;94.20;;;;;;4924670;28;87009;-76
2020/12/12 06:14:08;;;;;;;95.70;44.43;;;1.90;94.40;;;;;;4923446;28;87057;-76
2020/12/12 06:16:35;;;;;;;102.13;46.30;;;1.90;94.60;;;;;;4907636;28;88272;-76
2020/12/12 06:19:08;;;;;;;93.87;46.67;;;1.80;94.70;;;;;;4942118;28;91187;-76
2020/12/12 06:21:36;;;;;;;85.80;44.60;;;1.90;94.70;;;;;;4943716;28;89063;-76
2020/12/12 06:24:04;;;;;;;84.47;42.43;;;1.90;94.50;;;;;;4952479;28;87205;-76
2020/12/12 06:26:56;;;;;;;92.43;44.10;;;1.90;94.40;;;;;;4923361;28;88004;-78
2020/12/12 06:29:25;;;;;;;95.15;46.35;;;1.90;94.40;;;;;;4922885;28;89665;-78
2020/12/12 06:31:52;;;;;;;100.17;44.87;;;1.90;94.50;;;;;;4922419;28;92448;-76
2020/12/12 06:34:40;;;;;;;96.00;44.80;;;2.10;94.30;;;;;;4934421;28;87222;-76
2020/12/12 06:37:06;;;;;;;92.90;45.87;;;2.00;94.30;;;;;;4934137;28;87176;-75
2020/12/12 06:39:43;;;;;;;90.27;44.67;;;2.00;94.10;;;;;;4939654;28;90486;-76
2020/12/12 06:42:28;;;;;;;117.17;48.20;;;2.10;93.90;;;;;;4922933;28;91021;-76
2020/12/12 06:44:54;;;;;;;83.63;42.00;;;2.10;93.90;;;;;;4923637;28;87334;-77
2020/12/12 06:47:37;;;;;;;86.83;44.87;;;2.00;93.80;;;;;;4939906;28;86347;-76
2020/12/12 06:50:30;;;;;;;89.60;43.13;;;2.00;93.90;;;;;;4939466;28;91077;-75
2020/12/12 06:52:56;;;;;;;98.00;46.03;;;2.10;93.60;;;;;;4941109;28;87618;-76
2020/12/12 06:55:24;;;;;;;88.13;42.73;;;2.10;93.50;;;;;;4905961;28;88091;-76
2020/12/12 06:57:56;;;;;;;89.83;43.53;;;2.10;93.50;;;;;;4923464;28;87993;-76
2020/12/12 07:00:28;;;;;;;101.88;44.67;;;2.10;93.60;;;;;;4922604;28;91696;-76
2020/12/12 07:02:59;;;;;;;99.65;45.67;;;2.20;93.40;;;;;;4929359;28;89983;-78
2020/12/12 07:05:26;;;;;;;95.80;44.90;;;2.20;93.30;;;;;;4912291;28;87188;-78
2020/12/12 07:07:53;;;;;;;90.97;43.80;;;2.20;93.30;;;;;;4923314;28;87966;-78
2020/12/12 07:10:19;;;;;;;94.40;44.00;;;2.20;93.00;;;;;;4907018;28;91613;-78
2020/12/12 07:12:45;;;;;;;102.33;46.83;;;2.20;93.00;;;;;;4953318;28;88156;-78
2020/12/12 07:15:11;;;;;;;94.13;41.67;;;2.20;92.90;;;;;;4938207;28;87096;-77
2020/12/12 07:17:39;;;;;;;108.07;44.90;;;2.10;93.10;;;;;;4914545;28;87784;-78
2020/12/12 07:20:05;;;;;;;82.93;38.67;;;2.10;93.10;;;;;;4958352;28;89056;-76
2020/12/12 07:22:32;;;;;;;105.17;43.90;;;2.10;93.00;;;;;;4958576;28;92833;-76
2020/12/12 07:24:58;;;;;;;112.10;45.37;;;2.10;93.00;;;;;;4937493;28;87575;-77
2020/12/12 07:27:25;;;;;;;124.27;43.73;;;2.10;92.90;;;;;;4957469;28;87627;-77
2020/12/12 07:29:51;;;;;;;126.67;45.67;;;2.10;92.80;;;;;;4958585;28;87939;-78
2020/12/12 07:32:17;;;;;;;92.50;42.90;;;2.00;93.20;;;;;;4922071;28;91415;-78
2020/12/12 07:34:42;;;;;;;97.63;45.17;;;2.00;93.40;;;;;;4924724;28;87011;-76
2020/12/12 07:37:10;;;;;;;91.27;42.80;;;1.90;93.40;;;;;;4921668;28;87486;-76
2020/12/12 07:39:42;;;;;;;105.93;46.13;;;2.00;93.40;;;;;;4938875;28;90961;-78
2020/12/12 07:42:10;;;;;;;105.97;44.87;;;2.00;93.20;;;;;;4921697;28;91107;-76
2020/12/12 07:44:53;;;;;;;95.30;45.13;;;1.90;93.30;;;;;;4930088;28;88451;-78
2020/12/12 07:47:19;;;;;;;94.80;45.63;;;1.90;93.50;;;;;;4936177;28;88401;-78
2020/12/12 07:49:44;;;;;;;96.67;44.77;;;1.90;93.30;;;;;;4926695;28;91220;-78
2020/12/12 07:52:12;;;;;;;112.53;45.97;;;1.90;93.20;;;;;;4950243;28;91489;-76
2020/12/12 07:54:43;;;;;;;93.87;43.73;;;1.90;93.20;;;;;;4933593;28;87493;-75
2020/12/12 07:57:11;;;;;;;97.37;46.03;;;1.90;93.00;;;;;;4944335;28;87064;-76
2020/12/12 07:59:38;;;;;;;81.27;40.70;;;2.00;93.00;;;;;;4932663;28;88277;-75
2020/12/12 08:02:06;;;;;;;96.87;43.73;;;2.00;93.00;;;;;;4932650;28;87915;-75
2020/12/12 08:04:32;;;;;;;82.80;42.23;;;2.10;92.60;;;;;;4932319;28;87011;-76
2020/12/12 08:07:07;;;;;;;91.47;44.07;;;2.00;92.50;;;;;;4949443;28;87649;-78
2020/12/12 08:09:33;;;;;;;89.97;44.63;;;2.00;92.60;;;;;;4916406;28;91371;-78
2020/12/12 08:12:01;;;;;;;97.83;45.83;;;2.00;92.60;;;;;;4948732;28;88795;-77
2020/12/12 08:14:30;;;;;;;90.03;46.10;;;2.00;92.50;;;;;;4949397;28;86929;-78
2020/12/12 08:16:58;;;;;;;83.50;42.63;;;2.00;92.50;;;;;;4949742;28;87853;-77
2020/12/12 08:19:24;;;;;;;91.33;43.50;;;2.00;92.50;;;;;;4917551;28;91084;-75
2020/12/12 08:22:15;;;;;;;86.07;43.40;;;2.10;92.40;;;;;;4948496;28;88162;-76
2020/12/12 08:24:44;;;;;;;92.83;44.90;;;2.10;92.20;;;;;;4939191;28;87227;-76
2020/12/12 08:27:11;;;;;;;86.67;43.27;;;2.20;92.00;;;;;;4937548;28;88185;-75
2020/12/12 08:29:43;;;;;;;87.93;46.03;;;2.10;91.90;;;;;;4922127;28;91245;-78
2020/12/12 08:32:37;;;;;;;85.43;44.60;;;2.10;92.10;;;;;;4928184;28;88145;-78
2020/12/12 08:35:25;;;;;;;84.10;40.90;;;2.10;92.10;;;;;;4958585;28;88223;-77
2020/12/12 08:38:13;;;;;;;90.60;43.80;;;2.20;91.90;;;;;;4941482;28;87950;-78
2020/12/12 08:40:42;;;;;;;84.37;41.63;;;2.10;91.70;;;;;;4939377;28;88722;-78
2020/12/12 08:43:09;;;;;;;92.77;44.23;;;2.00;92.00;;;;;;4935935;28;91351;-77
2020/12/12 08:45:37;;;;;;;99.23;47.07;;;2.00;92.20;;;;;;4935940;28;87629;-78
2020/12/12 08:48:07;;;;;;;94.43;46.50;;;2.10;92.20;;;;;;4933662;28;87265;-77
2020/12/12 08:50:50;;;;;;;100.27;48.97;;;2.10;92.00;;;;;;4949639;28;88778;-78
2020/12/12 08:53:27;;;;;;;86.87;43.57;;;2.20;92.00;;;;;;4945783;28;87997;-77
2020/12/12 08:56:04;;;;;;;89.70;44.87;;;2.30;91.60;;;;;;4931448;28;87107;-77
2020/12/12 08:58:59;;;;;;;95.17;49.20;;;2.30;91.40;;;;;;4952389;28;86920;-77
2020/12/12 09:01:28;;;;;;;97.67;48.80;;;2.20;91.40;;;;;;4926002;28;92232;-78
2020/12/12 09:04:18;;;;;;;85.97;46.40;;;2.30;91.40;;;;;;4954917;28;89365;-77
2020/12/12 09:06:49;;;;;;;93.57;46.57;;;2.30;91.40;;;;;;4954472;28;87633;-78
2020/12/12 09:09:29;;;;;;;94.88;49.78;;;2.20;91.60;;;;;;4953231;28;87054;-77
2020/12/12 09:12:08;;;;;;;89.57;47.10;;;2.30;91.70;;;;;;4957261;28;91498;-77
2020/12/12 09:14:43;;;;;;;95.43;45.53;;;2.30;91.60;;;;;;4955145;28;87875;-76
2020/12/12 09:17:13;;;;;;;93.63;48.13;;;2.30;91.50;;;;;;4935079;28;86927;-78
2020/12/12 09:19:39;;;;;;;100.20;49.10;;;2.20;91.60;;;;;;4956487;28;87626;-78
2020/12/12 09:22:09;;;;;;;89.50;45.60;;;2.30;91.60;;;;;;4952691;28;88677;-77
2020/12/12 09:24:35;;;;;;;94.07;48.00;;;2.20;91.90;;;;;;4937909;28;89287;-78
2020/12/12 09:27:01;;;;;;;98.90;49.53;;;2.30;91.70;;;;;;4936603;28;88518;-77
2020/12/12 09:29:27;;;;;;;105.90;49.40;;;2.40;91.60;;;;;;4939212;28;87067;-77
2020/12/12 09:31:55;;;;;;;86.87;46.13;;;2.50;91.20;;;;;;4937532;28;91530;-77
2020/12/12 09:34:22;;;;;;;91.33;46.33;;;2.60;90.80;;;;;;4937359;28;91612;-78
2020/12/12 09:36:48;;;;;;;91.60;47.50;;;2.60;90.80;;;;;;4946915;28;87011;-77
2020/12/12 09:39:14;;;;;;;95.20;46.97;;;2.70;90.60;;;;;;4932966;28;88265;-75
2020/12/12 09:41:40;;;;;;;94.00;47.27;;;2.80;90.50;;;;;;4933542;28;88363;-76
2020/12/12 09:44:06;;;;;;;91.17;46.27;;;2.70;90.20;;;;;;4952242;28;87610;-76
2020/12/12 09:46:33;;;;;;;91.77;47.07;;;2.70;90.50;;;;;;4940178;28;87088;-76
2020/12/12 09:48:59;;;;;;;96.50;47.97;;;2.70;90.60;;;;;;4945453;28;87091;-76
2020/12/12 09:51:25;;;;;;;93.57;46.63;;;2.60;90.70;;;;;;4925396;28;92234;-77
2020/12/12 09:53:53;;;;;;;98.50;48.80;;;2.60;90.90;;;;;;4944559;28;91862;-78
2020/12/12 09:56:19;;;;;;;93.23;46.10;;;2.60;91.00;;;;;;4940149;28;87236;-77
2020/12/12 09:58:45;;;;;;;95.53;48.40;;;2.60;91.00;;;;;;4954427;28;88067;-78
2020/12/12 10:01:12;;;;;;;98.87;47.17;;;2.60;91.20;;;;;;4957109;28;91502;-77
2020/12/12 10:03:38;;;;;;;93.03;51.53;;;2.70;90.80;;;;;;4960888;28;87894;-78
2020/12/12 10:06:09;;;;;;;93.00;46.77;;;2.60;90.80;;;;;;4960929;28;87141;-77
2020/12/12 10:08:35;;;;;;;101.60;48.80;;;2.60;90.90;;;;;;4951244;28;86680;-75
2020/12/12 10:11:02;;;;;;;90.83;46.77;;;2.60;91.10;;;;;;4936890;28;90105;-77
2020/12/12 10:13:27;;;;;;;94.10;48.83;;;2.60;90.90;;;;;;4952078;28;89341;-77
2020/12/12 10:15:53;;;;;;;93.30;47.23;;;2.70;91.10;;;;;;4949216;28;88080;-78
2020/12/12 10:18:19;;;;;;;92.87;46.53;;;2.70;91.00;;;;;;4953605;28;88204;-78
2020/12/12 10:20:45;;;;;;;94.93;46.77;;;2.70;90.60;;;;;;4943299;28;87595;-78
2020/12/12 10:23:10;;;;;;;96.37;47.73;;;2.80;90.80;;;;;;4958594;28;91475;-78
2020/12/12 10:25:36;;;;;;;88.00;47.03;;;2.70;90.70;;;;;;4942925;28;87268;-78
2020/12/12 10:28:02;;;;;;;98.80;50.03;;;2.80;90.80;;;;;;4946566;28;87248;-77
2020/12/12 10:30:30;;;;;;;97.53;47.53;;;2.80;90.80;;;;;;4922972;28;91437;-78
2020/12/12 10:32:59;;;;;;;106.50;50.40;;;2.90;90.70;;;;;;4912510;28;91498;-77
2020/12/12 10:35:25;;;;;;;95.00;50.70;;;2.90;90.60;;;;;;4951099;28;87355;-78
2020/12/12 10:37:51;;;;;;;94.23;49.27;;;2.90;90.60;;;;;;4950494;28;87781;-78
2020/12/12 10:40:20;;;;;;;99.30;51.27;;;3.00;90.50;;;;;;4937521;28;89388;-78
2020/12/12 10:42:46;;;;;;;97.23;49.23;;;3.00;90.60;;;;;;4951313;28;92673;-77
2020/12/12 10:45:12;;;;;;;96.83;50.83;;;3.00;90.50;;;;;;4949727;28;87059;-77
2020/12/12 10:47:38;;;;;;;93.40;51.80;;;2.90;90.60;;;;;;4950661;28;87024;-78
2020/12/12 10:50:06;;;;;;;96.03;52.63;;;2.90;90.70;;;;;;4951201;28;88129;-78
2020/12/12 10:52:33;;;;;;;101.17;53.10;;;2.90;90.80;;;;;;4950067;28;87387;-78
2020/12/12 10:54:59;;;;;;;100.23;53.13;;;3.00;90.60;;;;;;4935750;28;87253;-78
2020/12/12 10:57:24;;;;;;;107.17;54.37;;;3.20;90.60;;;;;;4950686;28;86354;-78
2020/12/12 10:59:50;;;;;;;96.60;51.13;;;3.20;90.30;;;;;;4937608;28;91547;-78
2020/12/12 11:02:16;;;;;;;94.43;50.43;;;3.30;90.00;;;;;;4938424;28;90067;-78
2020/12/12 11:04:43;;;;;;;107.33;55.17;;;3.40;89.70;;;;;;4952547;28;88061;-77
2020/12/12 11:07:10;;;;;;;106.03;54.43;;;3.40;89.10;;;;;;4934875;28;88124;-78
2020/12/12 11:09:38;;;;;;;103.77;52.73;;;3.40;88.90;;;;;;4934793;28;92207;-77
2020/12/12 11:12:05;;;;;;;102.33;52.77;;;3.40;88.90;;;;;;4948459;28;91030;-78
2020/12/12 11:14:33;;;;;;;111.07;55.47;;;3.40;89.60;;;;;;4953601;28;87242;-80
2020/12/12 11:17:03;;;;;;;107.17;55.70;;;3.40;90.70;;;;;;4938682;28;87753;-79
2020/12/12 11:19:29;;;;;;;115.30;57.53;;;3.40;90.20;;;;;;4941992;28;91654;-78
2020/12/12 11:21:56;;;;;;;105.80;56.80;;;3.40;90.00;;;;;;4942775;28;90707;-77
2020/12/12 11:24:22;;;;;;;103.10;54.93;;;3.50;89.80;;;;;;4948888;28;87133;-77
2020/12/12 11:26:49;;;;;;;109.77;54.60;;;3.50;89.70;;;;;;4922166;28;87732;-77
2020/12/12 11:29:15;;;;;;;104.13;55.13;;;3.50;89.50;;;;;;4920977;28;92664;-77
2020/12/12 11:31:45;;;;;;;104.40;53.10;;;3.40;89.80;;;;;;4939243;28;91605;-77
2020/12/12 11:34:36;;;;;;;103.93;55.50;;;3.40;90.00;;;;;;4932041;28;87085;-78
2020/12/12 11:37:22;;;;;;;106.83;55.37;;;3.40;90.00;;;;;;4922207;28;87873;-77
2020/12/12 11:42:59;;;;;;;96.73;51.53;;;3.40;89.50;;;;;;4944889;28;88236;-76
2020/12/12 11:47:59;;;;;;;109.80;56.10;;;3.40;89.70;;;;;;4941231;28;86091;-78
2020/12/12 11:50:29;;;;;;;93.07;52.93;;;3.40;90.20;;;;;;4932895;28;88009;-78
2020/12/12 11:52:56;;;;;;;102.87;52.87;;;3.30;90.10;;;;;;4942015;28;87507;-78
2020/12/12 11:55:25;;;;;;;103.10;55.43;;;3.30;90.30;;;;;;4939916;28;88104;-78
2020/12/12 11:57:51;;;;;;;104.23;53.87;;;3.40;90.20;;;;;;4907898;28;88087;-78
2020/12/12 12:00:18;;;;;;;92.33;51.07;;;3.40;90.10;;;;;;4922211;28;87338;-77
2020/12/12 12:02:44;;;;;;;101.80;53.20;;;3.50;89.60;;;;;;4939894;28;87512;-78
2020/12/12 12:05:10;;;;;;;103.90;51.97;;;3.60;89.50;;;;;;4914582;28;87592;-78
2020/12/12 12:07:44;;;;;;;96.10;53.80;;;3.60;88.90;;;;;;4956911;28;87432;-77
2020/12/12 12:11:07;;;;;;;94.37;53.47;;;3.60;88.80;;;;;;4958631;28;88005;-77
2020/12/12 12:12:59;;;;;;;97.20;53.57;;;3.60;89.10;;;;;;4931979;28;89984;-80
2020/12/12 12:15:25;;;;;;;101.00;54.37;;;3.60;89.30;;;;;;4939990;28;87659;-78
2020/12/12 12:17:50;;;;;;;96.60;52.87;;;3.60;89.20;;;;;;4938776;28;87979;-78
2020/12/12 12:20:16;;;;;;;96.30;51.93;;;3.80;88.40;;;;;;4915109;28;92231;-77
2020/12/12 12:22:42;;;;;;;86.17;50.20;;;3.80;88.10;;;;;;4929683;28;88834;-77
2020/12/12 12:25:09;;;;;;;94.33;52.77;;;3.80;87.90;;;;;;4930403;28;87773;-77
2020/12/12 12:27:37;;;;;;;92.90;49.80;;;3.70;88.20;;;;;;4927455;28;87097;-77
2020/12/12 12:30:03;;;;;;;84.60;46.27;;;3.70;88.40;;;;;;4938856;28;91029;-77
2020/12/12 12:32:29;;;;;;;88.90;50.17;;;3.60;89.30;;;;;;4918990;28;91590;-77
2020/12/12 12:34:54;;;;;;;94.00;51.07;;;3.50;89.60;;;;;;4933509;28;86933;-77
2020/12/12 12:37:20;;;;;;;80.43;48.33;;;3.60;89.60;;;;;;4938859;28;88064;-77
2020/12/12 12:39:46;;;;;;;86.53;47.63;;;3.60;89.80;;;;;;4932228;28;90666;-77
2020/12/12 12:42:12;;;;;;;92.53;49.60;;;3.60;89.90;;;;;;4939026;28;88020;-77
2020/12/12 12:44:37;;;;;;;90.80;49.23;;;3.60;90.00;;;;;;4932823;28;87897;-77